createdAt,value
2017-01-14T00:00:36.031Z,-0.82
2017-01-14T00:01:46.756Z,-0.78
2017-01-14T00:02:57.488Z,-0.82
2017-01-14T00:04:08.577Z,-0.85
2017-01-14T00:05:19.302Z,-0.85
2017-01-14T00:06:30.023Z,-0.87
2017-01-14T00:07:40.761Z,-0.87
2017-01-14T00:08:51.489Z,-0.91
2017-01-14T00:10:02.207Z,-0.93
2017-01-14T00:11:12.907Z,-0.87
2017-01-14T00:12:23.620Z,-0.91
2017-01-14T00:13:34.341Z,-0.91
2017-01-14T00:14:45.062Z,-0.91
2017-01-14T00:15:55.804Z,-0.89
2017-01-14T00:17:06.525Z,-0.91
2017-01-14T00:18:17.231Z,-0.84
2017-01-14T00:19:27.979Z,-0.91
2017-01-14T00:20:38.696Z,-0.91
2017-01-14T00:21:49.438Z,-0.96
2017-01-14T00:23:00.156Z,-0.97
2017-01-14T00:24:10.884Z,-0.94
2017-01-14T00:25:21.601Z,-0.99
2017-01-14T00:26:32.305Z,-0.97
2017-01-14T00:27:43.025Z,-1.01
2017-01-14T00:28:53.746Z,-1.09
2017-01-14T00:30:04.467Z,-1.09
2017-01-14T00:31:15.186Z,-1.03
2017-01-14T00:32:25.906Z,-1.11
2017-01-14T00:33:36.644Z,-1.03
2017-01-14T00:34:47.340Z,-1.11
2017-01-14T00:35:58.069Z,-1.06
2017-01-14T00:37:08.794Z,-1.09
2017-01-14T00:38:19.529Z,-1.11
2017-01-14T00:39:30.258Z,-1.14
2017-01-14T00:40:40.978Z,-1.11
2017-01-14T00:41:51.675Z,-1.25
2017-01-14T00:43:02.367Z,-1.14
2017-01-14T00:44:13.116Z,-1.25
2017-01-14T00:45:23.832Z,-1.24
2017-01-14T00:46:34.579Z,-1.29
2017-01-14T00:47:45.296Z,-1.19
2017-01-14T00:48:56.026Z,-1.18
2017-01-14T00:50:06.767Z,-1.21
2017-01-14T00:51:17.487Z,-1.19
2017-01-14T00:52:28.217Z,-1.27
2017-01-14T00:53:39.310Z,-1.3
2017-01-14T00:54:50.022Z,-1.27
2017-01-14T00:56:00.754Z,-1.3
2017-01-14T00:57:11.457Z,-1.33
2017-01-14T00:58:22.201Z,-1.29
2017-01-14T00:59:32.930Z,-1.3
2017-01-14T01:00:43.652Z,-1.3
2017-01-14T01:01:54.373Z,-1.38
2017-01-14T01:03:05.068Z,-1.36
2017-01-14T01:04:15.800Z,-1.45
2017-01-14T01:05:26.522Z,-1.43
2017-01-14T01:06:37.244Z,-1.43
2017-01-14T01:07:47.985Z,-1.42
2017-01-14T01:08:58.698Z,-1.39
2017-01-14T01:10:09.794Z,-1.48
2017-01-14T01:11:20.501Z,-1.46
2017-01-14T01:12:31.240Z,-1.54
2017-01-14T01:13:41.966Z,-1.54
2017-01-14T01:14:52.706Z,-1.64
2017-01-14T01:16:03.422Z,-1.51
2017-01-14T01:17:14.149Z,-1.58
2017-01-14T01:18:24.866Z,-1.63
2017-01-14T01:19:35.574Z,-1.57
2017-01-14T01:20:46.283Z,-1.6
2017-01-14T01:21:56.991Z,-1.6
2017-01-14T01:23:07.707Z,-1.6
2017-01-14T01:24:18.449Z,-1.63
2017-01-14T01:25:29.166Z,-1.63
2017-01-14T01:26:39.872Z,-1.63
2017-01-14T01:27:50.591Z,-1.68
2017-01-14T01:29:01.287Z,-1.66
2017-01-14T01:30:11.976Z,-1.6
2017-01-14T01:31:22.733Z,-1.61
2017-01-14T01:32:33.468Z,-1.57
2017-01-14T01:33:44.224Z,-1.68
2017-01-14T01:34:54.934Z,-1.68
2017-01-14T01:36:05.654Z,-1.69
2017-01-14T01:37:16.388Z,-1.64
2017-01-14T01:38:27.101Z,-1.66
2017-01-14T01:39:37.830Z,-1.69
2017-01-14T01:40:48.570Z,-1.69
2017-01-14T01:41:59.311Z,-1.64
2017-01-14T01:43:10.042Z,-1.64
2017-01-14T01:44:20.755Z,-1.64
2017-01-14T01:45:31.484Z,-1.69
2017-01-14T01:46:42.223Z,-1.64
2017-01-14T01:47:52.944Z,-1.69
2017-01-14T01:49:03.623Z,-1.78
2017-01-14T01:50:14.387Z,-1.69
2017-01-14T01:51:25.132Z,-1.68
2017-01-14T01:52:35.856Z,-1.69
2017-01-14T01:53:46.578Z,-1.72
2017-01-14T01:54:57.298Z,-1.69
2017-01-14T01:56:08.015Z,-1.71
2017-01-14T01:57:18.721Z,-1.75
2017-01-14T01:58:29.404Z,-1.76
2017-01-14T01:59:40.110Z,-1.74
2017-01-14T02:00:50.828Z,-1.81
2017-01-14T02:02:01.554Z,-1.81
2017-01-14T02:03:12.288Z,-1.84
2017-01-14T02:04:23.038Z,-1.86
2017-01-14T02:05:33.757Z,-1.76
2017-01-14T02:06:44.476Z,-1.81
2017-01-14T02:07:55.180Z,-1.81
2017-01-14T02:09:05.904Z,-1.79
2017-01-14T02:10:16.621Z,-1.82
2017-01-14T02:11:27.339Z,-1.82
2017-01-14T02:12:38.066Z,-1.82
2017-01-14T02:13:48.830Z,-1.81
2017-01-14T02:14:59.576Z,-1.82
2017-01-14T02:16:10.277Z,-1.86
2017-01-14T02:17:21.390Z,-1.9
2017-01-14T02:18:32.114Z,-1.94
2017-01-14T02:19:42.867Z,-1.89
2017-01-14T02:20:53.608Z,-1.94
2017-01-14T02:22:04.352Z,-1.97
2017-01-14T02:23:15.072Z,-1.93
2017-01-14T02:24:25.798Z,-1.92
2017-01-14T02:25:36.515Z,-1.92
2017-01-14T02:26:47.245Z,-1.93
2017-01-14T02:27:58.007Z,-1.92
2017-01-14T02:29:08.735Z,-1.94
2017-01-14T02:30:19.456Z,-1.97
2017-01-14T02:31:30.166Z,-1.94
2017-01-14T02:32:40.891Z,-2
2017-01-14T02:33:51.618Z,-2
2017-01-14T02:35:02.338Z,-1.97
2017-01-14T02:36:13.051Z,-1.97
2017-01-14T02:37:23.776Z,-1.99
2017-01-14T02:38:34.492Z,-2.04
2017-01-14T02:39:45.197Z,-1.89
2017-01-14T02:40:55.925Z,-1.99
2017-01-14T02:42:06.643Z,-1.9
2017-01-14T02:43:17.387Z,-2
2017-01-14T02:44:28.101Z,-2
2017-01-14T02:45:38.847Z,-1.97
2017-01-14T02:46:49.589Z,-1.97
2017-01-14T02:48:00.311Z,-2.05
2017-01-14T02:49:11.043Z,-2.02
2017-01-14T02:50:21.869Z,-2.05
2017-01-14T02:51:32.899Z,-2.07
2017-01-14T02:52:44.019Z,-2.07
2017-01-14T02:53:55.497Z,-2.02
2017-01-14T02:55:06.210Z,-2.08
2017-01-14T02:56:16.940Z,-2.02
2017-01-14T02:57:27.661Z,-2.05
2017-01-14T02:58:38.405Z,-2.13
2017-01-14T02:59:49.121Z,-2
2017-01-14T03:00:59.849Z,-2.05
2017-01-14T03:02:10.541Z,-2.07
2017-01-14T03:03:21.265Z,-2.1
2017-01-14T03:04:31.987Z,-2.14
2017-01-14T03:05:42.704Z,-2.11
2017-01-14T03:06:53.404Z,-2.15
2017-01-14T03:08:04.106Z,-2.14
2017-01-14T03:09:14.802Z,-2.14
2017-01-14T03:10:25.535Z,-2.17
2017-01-14T03:11:36.243Z,-2.14
2017-01-14T03:12:46.980Z,-2.25
2017-01-14T03:13:57.722Z,-2.14
2017-01-14T03:15:08.468Z,-2.17
2017-01-14T03:16:19.188Z,-2.26
2017-01-14T03:17:29.913Z,-2.22
2017-01-14T03:18:40.642Z,-2.15
2017-01-14T03:19:51.366Z,-2.25
2017-01-14T03:21:02.077Z,-2.22
2017-01-14T03:22:12.797Z,-2.17
2017-01-14T03:23:23.497Z,-2.28
2017-01-14T03:24:34.198Z,-2.28
2017-01-14T03:25:44.909Z,-2.26
2017-01-14T03:26:55.639Z,-2.25
2017-01-14T03:28:06.335Z,-2.22
2017-01-14T03:29:17.057Z,-2.29
2017-01-14T03:30:27.777Z,-2.26
2017-01-14T03:31:38.495Z,-2.32
2017-01-14T03:32:49.211Z,-2.29
2017-01-14T03:33:59.957Z,-2.28
2017-01-14T03:35:10.707Z,-2.26
2017-01-14T03:36:21.458Z,-2.32
2017-01-14T03:37:32.179Z,-2.23
2017-01-14T03:38:42.899Z,-2.29
2017-01-14T03:39:53.619Z,-2.32
2017-01-14T03:41:04.333Z,-2.33
2017-01-14T03:42:15.063Z,-2.22
2017-01-14T03:43:25.759Z,-2.29
2017-01-14T03:44:36.497Z,-2.22
2017-01-14T03:45:47.221Z,-2.18
2017-01-14T03:46:57.938Z,-2.22
2017-01-14T03:48:08.670Z,-2.15
2017-01-14T03:49:19.387Z,-2.17
2017-01-14T03:50:30.109Z,-2.14
2017-01-14T03:51:40.828Z,-2.17
2017-01-14T03:52:51.556Z,-2.13
2017-01-14T03:54:02.289Z,-2.14
2017-01-14T03:55:13.032Z,-2.08
2017-01-14T03:56:23.760Z,-2.1
2017-01-14T03:57:34.481Z,-2.1
2017-01-14T03:58:45.178Z,-1.92
2017-01-14T03:59:55.891Z,-1.99
2017-01-14T04:01:06.637Z,-2.02
2017-01-14T04:02:17.358Z,-1.99
2017-01-14T04:03:28.066Z,-1.99
2017-01-14T04:04:38.800Z,-1.92
2017-01-14T04:05:49.520Z,-1.9
2017-01-14T04:07:00.220Z,-1.86
2017-01-14T04:08:10.926Z,-1.89
2017-01-14T04:09:21.667Z,-1.79
2017-01-14T04:10:32.382Z,-1.74
2017-01-14T04:11:43.108Z,-1.78
2017-01-14T04:12:53.829Z,-1.61
2017-01-14T04:14:04.552Z,-1.64
2017-01-14T04:15:15.274Z,-1.6
2017-01-14T04:16:26.020Z,-1.64
2017-01-14T04:17:36.705Z,-1.63
2017-01-14T04:18:47.456Z,-1.58
2017-01-14T04:19:58.198Z,-1.54
2017-01-14T04:21:08.955Z,-1.45
2017-01-14T04:22:19.678Z,-1.42
2017-01-14T04:23:30.415Z,-1.46
2017-01-14T04:24:41.142Z,-1.36
2017-01-14T04:25:51.881Z,-1.39
2017-01-14T04:27:02.609Z,-1.33
2017-01-14T04:28:13.327Z,-1.32
2017-01-14T04:29:24.025Z,-1.3
2017-01-14T04:30:34.747Z,-1.19
2017-01-14T04:31:45.461Z,-1.11
2017-01-14T04:32:56.153Z,-1.27
2017-01-14T04:34:06.878Z,-1.17
2017-01-14T04:35:17.582Z,-1.19
2017-01-14T04:36:28.295Z,-1.25
2017-01-14T04:37:39.016Z,-1.12
2017-01-14T04:38:49.742Z,-0.99
2017-01-14T04:40:00.441Z,-1.03
2017-01-14T04:41:11.188Z,-1.06
2017-01-14T04:42:21.963Z,-1
2017-01-14T04:43:32.693Z,-0.93
2017-01-14T04:44:43.396Z,-0.94
2017-01-14T04:45:54.113Z,-0.94
2017-01-14T04:47:04.817Z,-0.93
2017-01-14T04:48:15.526Z,-0.89
2017-01-14T04:49:26.251Z,-0.93
2017-01-14T04:50:36.976Z,-0.89
2017-01-14T04:51:47.718Z,-0.81
2017-01-14T04:52:58.472Z,-0.84
2017-01-14T04:54:09.189Z,-0.82
2017-01-14T04:55:19.907Z,-0.85
2017-01-14T04:56:30.623Z,-0.74
2017-01-14T04:57:41.333Z,-0.75
2017-01-14T04:58:52.091Z,-0.8
2017-01-14T05:00:02.848Z,-0.84
2017-01-14T05:01:13.587Z,-0.66
2017-01-14T05:02:24.304Z,-0.74
2017-01-14T05:03:35.028Z,-0.74
2017-01-14T05:04:45.728Z,-0.74
2017-01-14T05:05:56.471Z,-0.74
2017-01-14T05:07:07.200Z,-0.72
2017-01-14T05:08:17.910Z,-0.72
2017-01-14T05:09:28.640Z,-0.74
2017-01-14T05:10:39.334Z,-0.7
2017-01-14T05:11:50.029Z,-0.62
2017-01-14T05:13:00.754Z,-0.64
2017-01-14T05:14:11.448Z,-0.66
2017-01-14T05:15:22.189Z,-0.62
2017-01-14T05:16:32.916Z,-0.56
2017-01-14T05:17:43.652Z,-0.56
2017-01-14T05:18:54.401Z,-0.62
2017-01-14T05:20:05.102Z,-0.62
2017-01-14T05:21:15.826Z,-0.63
2017-01-14T05:22:26.550Z,-0.54
2017-01-14T05:23:37.669Z,-0.57
2017-01-14T05:24:48.403Z,-0.54
2017-01-14T05:25:59.150Z,-0.57
2017-01-14T05:27:09.895Z,-0.56
2017-01-14T05:28:20.628Z,-0.57
2017-01-14T05:29:31.362Z,-0.48
2017-01-14T05:30:42.087Z,-0.48
2017-01-14T05:31:52.808Z,-0.51
2017-01-14T05:33:03.558Z,-0.48
2017-01-14T05:34:14.275Z,-0.53
2017-01-14T05:35:24.996Z,-0.48
2017-01-14T05:36:35.721Z,-0.45
2017-01-14T05:37:46.463Z,-0.53
2017-01-14T05:38:57.188Z,-0.51
2017-01-14T05:40:07.926Z,-0.49
2017-01-14T05:41:18.633Z,-0.51
2017-01-14T05:42:29.329Z,-0.46
2017-01-14T05:43:40.039Z,-0.46
2017-01-14T05:44:50.788Z,-0.49
2017-01-14T05:46:01.505Z,-0.53
2017-01-14T05:47:12.227Z,-0.44
2017-01-14T05:48:22.931Z,-0.44
2017-01-14T05:49:33.630Z,-0.41
2017-01-14T05:50:44.368Z,-0.45
2017-01-14T05:51:55.090Z,-0.45
2017-01-14T05:53:05.810Z,-0.38
2017-01-14T05:54:16.531Z,-0.39
2017-01-14T05:55:27.258Z,-0.39
2017-01-14T05:56:38.005Z,-0.44
2017-01-14T05:57:48.724Z,-0.42
2017-01-14T05:58:59.451Z,-0.36
2017-01-14T06:00:10.194Z,-0.39
2017-01-14T06:01:20.929Z,-0.36
2017-01-14T06:02:31.661Z,-0.39
2017-01-14T06:03:42.399Z,-0.42
2017-01-14T06:04:53.116Z,-0.28
2017-01-14T06:06:03.851Z,-0.3
2017-01-14T06:07:14.612Z,-0.31
2017-01-14T06:08:25.308Z,-0.27
2017-01-14T06:09:36.025Z,-0.35
2017-01-14T06:10:46.750Z,-0.28
2017-01-14T06:11:57.496Z,-0.31
2017-01-14T06:13:08.224Z,-0.33
2017-01-14T06:14:18.945Z,-0.3
2017-01-14T06:15:29.680Z,-0.36
2017-01-14T06:16:40.405Z,-0.41
2017-01-14T06:17:51.131Z,-0.28
2017-01-14T06:19:01.835Z,-0.27
2017-01-14T06:20:12.550Z,-0.35
2017-01-14T06:21:23.271Z,-0.28
2017-01-14T06:22:33.984Z,-0.33
2017-01-14T06:23:44.705Z,-0.31
2017-01-14T06:24:55.407Z,-0.31
2017-01-14T06:26:06.130Z,-0.33
2017-01-14T06:27:16.868Z,-0.36
2017-01-14T06:28:27.586Z,-0.39
2017-01-14T06:29:38.315Z,-0.36
2017-01-14T06:30:49.037Z,-0.28
2017-01-14T06:31:59.766Z,-0.33
2017-01-14T06:33:10.480Z,-0.41
2017-01-14T06:34:21.182Z,-0.31
2017-01-14T06:35:31.913Z,-0.28
2017-01-14T06:36:42.617Z,-0.28
2017-01-14T06:37:53.356Z,-0.38
2017-01-14T06:39:04.053Z,-0.23
2017-01-14T06:40:14.799Z,-0.27
2017-01-14T06:41:25.540Z,-0.28
2017-01-14T06:42:36.263Z,-0.26
2017-01-14T06:43:47.019Z,-0.28
2017-01-14T06:44:57.756Z,-0.27
2017-01-14T06:46:08.478Z,-0.27
2017-01-14T06:47:19.221Z,-0.18
2017-01-14T06:48:29.945Z,-0.12
2017-01-14T06:49:40.642Z,-0.21
2017-01-14T06:50:51.359Z,-0.2
2017-01-14T06:52:02.087Z,-0.18
2017-01-14T06:53:12.834Z,-0.2
2017-01-14T06:54:23.547Z,-0.2
2017-01-14T06:55:34.282Z,-0.17
2017-01-14T06:56:45.021Z,-0.2
2017-01-14T06:57:55.713Z,-0.18
2017-01-14T06:59:06.435Z,-0.1
2017-01-14T07:00:17.143Z,-0.15
2017-01-14T07:01:27.856Z,-0.18
2017-01-14T07:02:38.572Z,-0.09
2017-01-14T07:03:49.316Z,-0.09
2017-01-14T07:05:00.044Z,-0.12
2017-01-14T07:06:10.768Z,-0.1
2017-01-14T07:07:21.508Z,-0.07
2017-01-14T07:08:32.206Z,-0.06
2017-01-14T07:09:42.931Z,-0.1
2017-01-14T07:10:53.652Z,-0.05
2017-01-14T07:12:04.369Z,-0.07
2017-01-14T07:13:15.095Z,-0.12
2017-01-14T07:14:25.840Z,-0.03
2017-01-14T07:15:36.552Z,-0.1
2017-01-14T07:16:47.271Z,-0.13
2017-01-14T07:17:57.991Z,-0.02
2017-01-14T07:19:08.766Z,-0.03
2017-01-14T07:20:19.509Z,0
2017-01-14T07:21:30.234Z,0
2017-01-14T07:22:40.983Z,-0.06
2017-01-14T07:23:51.707Z,0
2017-01-14T07:25:02.443Z,-0.03
2017-01-14T07:26:13.192Z,0.05
2017-01-14T07:27:23.912Z,0
2017-01-14T07:28:34.658Z,0
2017-01-14T07:29:45.402Z,0.05
2017-01-14T07:30:56.105Z,0.08
2017-01-14T07:32:06.843Z,0.08
2017-01-14T07:33:17.582Z,0.05
2017-01-14T07:34:28.294Z,0.08
2017-01-14T07:35:39.061Z,0.06
2017-01-14T07:36:49.803Z,0.09
2017-01-14T07:38:00.528Z,0.11
2017-01-14T07:39:11.257Z,0.11
2017-01-14T07:40:21.948Z,0.05
2017-01-14T07:41:32.641Z,0.11
2017-01-14T07:42:43.342Z,0.12
2017-01-14T07:43:54.054Z,0.09
2017-01-14T07:45:04.800Z,0.15
2017-01-14T07:46:15.538Z,0.19
2017-01-14T07:47:26.267Z,0.19
2017-01-14T07:48:36.976Z,0.24
2017-01-14T07:49:47.692Z,0.18
2017-01-14T07:50:58.413Z,0.24
2017-01-14T07:52:09.126Z,0.24
2017-01-14T07:53:19.856Z,0.23
2017-01-14T07:54:30.593Z,0.27
2017-01-14T07:55:41.340Z,0.24
2017-01-14T07:56:52.088Z,0.31
2017-01-14T07:58:02.814Z,0.27
2017-01-14T07:59:13.535Z,0.27
2017-01-14T08:00:24.232Z,0.31
2017-01-14T08:01:34.946Z,0.31
2017-01-14T08:02:45.677Z,0.37
2017-01-14T08:03:56.415Z,0.33
2017-01-14T08:05:07.165Z,0.36
2017-01-14T08:06:17.879Z,0.36
2017-01-14T08:07:28.607Z,0.34
2017-01-14T08:08:39.320Z,0.23
2017-01-14T08:09:50.024Z,0.34
2017-01-14T08:11:00.750Z,0.19
2017-01-14T08:12:11.468Z,0.3
2017-01-14T08:13:22.187Z,0.29
2017-01-14T08:14:32.925Z,0.31
2017-01-14T08:15:43.660Z,0.3
2017-01-14T08:16:54.356Z,0.36
2017-01-14T08:18:05.091Z,0.31
2017-01-14T08:19:15.838Z,0.31
2017-01-14T08:20:26.555Z,0.33
2017-01-14T08:21:37.301Z,0.31
2017-01-14T08:22:48.048Z,0.34
2017-01-14T08:23:58.796Z,0.37
2017-01-14T08:25:09.897Z,0.34
2017-01-14T08:26:20.638Z,0.39
2017-01-14T08:27:31.339Z,0.24
2017-01-14T08:28:42.060Z,0.33
2017-01-14T08:29:52.774Z,0.29
2017-01-14T08:31:03.503Z,0.29
2017-01-14T08:32:14.241Z,0.33
2017-01-14T08:33:24.961Z,0.36
2017-01-14T08:34:35.686Z,0.33
2017-01-14T08:35:46.412Z,0.34
2017-01-14T08:36:57.154Z,0.31
2017-01-14T08:38:07.880Z,0.37
2017-01-14T08:39:18.599Z,0.34
2017-01-14T08:40:29.338Z,0.34
2017-01-14T08:41:40.058Z,0.4
2017-01-14T08:42:50.793Z,0.45
2017-01-14T08:44:01.526Z,0.34
2017-01-14T08:45:12.657Z,0.37
2017-01-14T08:46:23.404Z,0.4
2017-01-14T08:47:34.122Z,0.42
2017-01-14T08:48:44.839Z,0.42
2017-01-14T08:49:55.581Z,0.39
2017-01-14T08:51:06.313Z,0.42
2017-01-14T08:52:17.030Z,0.52
2017-01-14T08:53:27.772Z,0.44
2017-01-14T08:54:38.474Z,0.48
2017-01-14T08:55:49.160Z,0.42
2017-01-14T08:56:59.894Z,0.49
2017-01-14T08:58:10.627Z,0.48
2017-01-14T08:59:21.334Z,0.49
2017-01-14T09:00:32.045Z,0.51
2017-01-14T09:01:42.799Z,0.51
2017-01-14T09:02:53.521Z,0.51
2017-01-14T09:04:04.265Z,0.49
2017-01-14T09:05:15.007Z,0.48
2017-01-14T09:06:25.712Z,0.49
2017-01-14T09:07:36.500Z,0.48
2017-01-14T09:08:47.217Z,0.48
2017-01-14T09:09:57.912Z,0.56
2017-01-14T09:11:08.617Z,0.47
2017-01-14T09:12:19.321Z,0.49
2017-01-14T09:13:30.057Z,0.49
2017-01-14T09:14:40.778Z,0.48
2017-01-14T09:15:51.878Z,0.52
2017-01-14T09:17:02.613Z,0.47
2017-01-14T09:18:13.337Z,0.47
2017-01-14T09:19:24.054Z,0.48
2017-01-14T09:20:34.800Z,0.52
2017-01-14T09:21:45.570Z,0.45
2017-01-14T09:22:56.280Z,0.56
2017-01-14T09:24:07.041Z,0.56
2017-01-14T09:25:17.758Z,0.49
2017-01-14T09:26:28.457Z,0.51
2017-01-14T09:27:39.163Z,0.55
2017-01-14T09:28:49.904Z,0.52
2017-01-14T09:30:00.628Z,0.63
2017-01-14T09:31:11.341Z,0.52
2017-01-14T09:32:22.058Z,0.52
2017-01-14T09:33:32.793Z,0.56
2017-01-14T09:34:43.513Z,0.59
2017-01-14T09:35:54.248Z,0.55
2017-01-14T09:37:04.979Z,0.56
2017-01-14T09:38:15.725Z,0.49
2017-01-14T09:39:26.463Z,0.52
2017-01-14T09:40:37.206Z,0.52
2017-01-14T09:41:47.937Z,0.55
2017-01-14T09:42:58.657Z,0.64
2017-01-14T09:44:09.393Z,0.63
2017-01-14T09:45:20.143Z,0.59
2017-01-14T09:46:30.861Z,0.59
2017-01-14T09:47:41.607Z,0.61
2017-01-14T09:48:52.315Z,0.58
2017-01-14T09:50:03.050Z,0.55
2017-01-14T09:51:13.807Z,0.58
2017-01-14T09:52:24.526Z,0.56
2017-01-14T09:53:35.248Z,0.56
2017-01-14T09:54:45.986Z,0.59
2017-01-14T09:55:56.716Z,0.55
2017-01-14T09:57:07.451Z,0.59
2017-01-14T09:58:18.199Z,0.63
2017-01-14T09:59:28.917Z,0.61
2017-01-14T10:00:39.666Z,0.59
2017-01-14T10:01:50.408Z,0.56
2017-01-14T10:03:01.137Z,0.56
2017-01-14T10:04:11.859Z,0.59
2017-01-14T10:05:22.601Z,0.61
2017-01-14T10:06:33.327Z,0.61
2017-01-14T10:07:44.028Z,0.61
2017-01-14T10:08:54.764Z,0.66
2017-01-14T10:10:05.510Z,0.61
2017-01-14T10:11:16.256Z,0.66
2017-01-14T10:12:26.973Z,0.59
2017-01-14T10:13:37.683Z,0.61
2017-01-14T10:14:48.394Z,0.63
2017-01-14T10:15:59.122Z,0.61
2017-01-14T10:17:09.815Z,0.7
2017-01-14T10:18:20.557Z,0.64
2017-01-14T10:19:31.299Z,0.59
2017-01-14T10:20:42.037Z,0.59
2017-01-14T10:21:52.781Z,0.61
2017-01-14T10:23:03.501Z,0.67
2017-01-14T10:24:14.212Z,0.59
2017-01-14T10:25:25.337Z,0.67
2017-01-14T10:26:36.058Z,0.74
2017-01-14T10:27:46.750Z,0.61
2017-01-14T10:28:57.453Z,0.64
2017-01-14T10:30:08.192Z,0.71
2017-01-14T10:31:18.924Z,0.74
2017-01-14T10:32:29.642Z,0.81
2017-01-14T10:33:40.368Z,0.76
2017-01-14T10:34:51.080Z,0.73
2017-01-14T10:36:01.797Z,0.82
2017-01-14T10:37:12.542Z,0.78
2017-01-14T10:38:23.260Z,0.78
2017-01-14T10:39:33.968Z,0.76
2017-01-14T10:40:44.686Z,0.88
2017-01-14T10:41:55.374Z,0.82
2017-01-14T10:43:06.094Z,0.82
2017-01-14T10:44:16.798Z,0.88
2017-01-14T10:45:27.524Z,0.84
2017-01-14T10:46:38.258Z,0.88
2017-01-14T10:47:49.012Z,0.89
2017-01-14T10:48:59.729Z,0.86
2017-01-14T10:50:10.453Z,0.85
2017-01-14T10:51:21.196Z,0.85
2017-01-14T10:52:31.924Z,0.81
2017-01-14T10:53:42.637Z,0.91
2017-01-14T10:54:53.363Z,0.86
2017-01-14T10:56:04.083Z,0.82
2017-01-14T10:57:14.808Z,0.82
2017-01-14T10:58:25.550Z,0.88
2017-01-14T10:59:36.250Z,0.88
2017-01-14T11:00:46.973Z,0.86
2017-01-14T11:01:57.693Z,0.86
2017-01-14T11:03:08.434Z,0.94
2017-01-14T11:04:19.175Z,0.85
2017-01-14T11:05:29.919Z,0.95
2017-01-14T11:06:40.643Z,0.86
2017-01-14T11:07:51.373Z,0.94
2017-01-14T11:09:02.129Z,0.96
2017-01-14T11:10:12.963Z,0.96
2017-01-14T11:11:23.679Z,0.95
2017-01-14T11:12:34.428Z,1.1
2017-01-14T11:13:45.166Z,1.04
2017-01-14T11:14:55.899Z,1.03
2017-01-14T11:16:06.634Z,0.95
2017-01-14T11:17:17.357Z,1.04
2017-01-14T11:18:28.061Z,1.03
2017-01-14T11:19:38.786Z,1.04
2017-01-14T11:20:49.545Z,1.03
2017-01-14T11:22:00.287Z,1.06
2017-01-14T11:23:11.395Z,1.04
2017-01-14T11:24:22.116Z,1.07
2017-01-14T11:25:32.835Z,1.02
2017-01-14T11:26:43.557Z,1.04
2017-01-14T11:27:54.296Z,1.06
2017-01-14T11:29:05.014Z,1.06
2017-01-14T11:30:15.744Z,1.04
2017-01-14T11:31:26.442Z,1.03
2017-01-14T11:32:37.156Z,1.14
2017-01-14T11:33:47.880Z,1.03
2017-01-14T11:34:58.580Z,1.14
2017-01-14T11:36:09.702Z,1.14
2017-01-14T11:37:20.811Z,1.25
2017-01-14T11:38:31.535Z,1.09
2017-01-14T11:39:42.665Z,1.25
2017-01-14T11:40:53.387Z,1.27
2017-01-14T11:42:04.127Z,1.2
2017-01-14T11:43:14.845Z,1.2
2017-01-14T11:44:25.950Z,1.16
2017-01-14T11:45:36.690Z,1.24
2017-01-14T11:46:47.422Z,1.34
2017-01-14T11:47:58.508Z,1.24
2017-01-14T11:49:09.250Z,1.25
2017-01-14T11:50:19.970Z,1.3
2017-01-14T11:51:30.695Z,1.28
2017-01-14T11:52:41.419Z,1.32
2017-01-14T11:53:52.154Z,1.31
2017-01-14T11:55:02.876Z,1.36
2017-01-14T11:56:13.629Z,1.32
2017-01-14T11:57:24.329Z,1.3
2017-01-14T11:58:35.070Z,1.38
2017-01-14T11:59:45.817Z,1.34
2017-01-14T12:00:56.538Z,1.36
2017-01-14T12:02:07.260Z,1.45
2017-01-14T12:03:17.998Z,1.46
2017-01-14T12:04:28.720Z,1.46
2017-01-14T12:05:39.472Z,1.36
2017-01-14T12:06:50.214Z,1.5
2017-01-14T12:08:00.931Z,1.43
2017-01-14T12:09:11.652Z,1.48
2017-01-14T12:10:22.383Z,1.48
2017-01-14T12:11:33.501Z,1.5
2017-01-14T12:12:44.224Z,1.49
2017-01-14T12:13:54.965Z,1.4
2017-01-14T12:15:06.114Z,1.46
2017-01-14T12:16:16.856Z,1.39
2017-01-14T12:17:27.581Z,1.36
2017-01-14T12:18:38.327Z,1.48
2017-01-14T12:19:49.053Z,1.5
2017-01-14T12:20:59.787Z,1.38
2017-01-14T12:22:10.519Z,1.4
2017-01-14T12:23:21.237Z,1.34
2017-01-14T12:24:31.950Z,1.43
2017-01-14T12:25:42.690Z,1.38
2017-01-14T12:26:53.803Z,1.45
2017-01-14T12:28:04.549Z,1.5
2017-01-14T12:29:15.295Z,1.4
2017-01-14T12:30:26.042Z,1.48
2017-01-14T12:31:36.758Z,1.39
2017-01-14T12:32:47.483Z,1.45
2017-01-14T12:33:58.220Z,1.4
2017-01-14T12:35:08.947Z,1.48
2017-01-14T12:36:19.700Z,1.43
2017-01-14T12:37:30.431Z,1.52
2017-01-14T12:38:41.205Z,1.52
2017-01-14T12:39:51.931Z,1.57
2017-01-14T12:41:02.643Z,1.57
2017-01-14T12:42:13.390Z,1.53
2017-01-14T12:43:24.139Z,1.49
2017-01-14T12:44:34.873Z,1.58
2017-01-14T12:45:45.594Z,1.61
2017-01-14T12:46:56.326Z,1.64
2017-01-14T12:48:07.053Z,1.63
2017-01-14T12:49:17.771Z,1.75
2017-01-14T12:50:28.500Z,1.67
2017-01-14T12:51:39.232Z,1.71
2017-01-14T12:52:49.978Z,1.74
2017-01-14T12:54:01.107Z,1.74
2017-01-14T12:55:11.829Z,1.82
2017-01-14T12:56:22.570Z,1.81
2017-01-14T12:57:33.316Z,1.93
2017-01-14T12:58:44.433Z,1.93
2017-01-14T12:59:55.157Z,1.97
2017-01-14T13:01:05.875Z,1.95
2017-01-14T13:02:16.580Z,1.92
2017-01-14T13:03:27.276Z,1.81
2017-01-14T13:04:37.992Z,1.93
2017-01-14T13:05:48.720Z,1.93
2017-01-14T13:06:59.413Z,1.93
2017-01-14T13:08:10.163Z,1.93
2017-01-14T13:09:20.900Z,2
2017-01-14T13:10:31.642Z,1.93
2017-01-14T13:11:42.397Z,1.88
2017-01-14T13:12:53.113Z,1.95
2017-01-14T13:14:03.860Z,2.03
2017-01-14T13:15:14.589Z,1.98
2017-01-14T13:16:25.310Z,1.93
2017-01-14T13:17:36.034Z,1.95
2017-01-14T13:18:46.755Z,1.89
2017-01-14T13:19:57.471Z,1.98
2017-01-14T13:21:08.208Z,1.98
2017-01-14T13:22:18.939Z,2
2017-01-14T13:23:29.658Z,1.81
2017-01-14T13:24:40.752Z,1.95
2017-01-14T13:25:51.478Z,1.82
2017-01-14T13:27:02.214Z,1.84
2017-01-14T13:28:12.916Z,1.89
2017-01-14T13:29:23.661Z,1.86
2017-01-14T13:30:34.375Z,1.85
2017-01-14T13:31:45.121Z,1.82
2017-01-14T13:32:55.870Z,1.84
2017-01-14T13:34:06.597Z,1.78
2017-01-14T13:35:17.311Z,1.86
2017-01-14T13:36:28.040Z,1.76
2017-01-14T13:37:38.779Z,1.79
2017-01-14T13:38:49.525Z,1.81
2017-01-14T13:40:00.256Z,1.75
2017-01-14T13:41:10.996Z,1.75
2017-01-14T13:42:21.746Z,1.67
2017-01-14T13:43:32.442Z,1.79
2017-01-14T13:44:43.179Z,1.75
2017-01-14T13:45:53.883Z,1.67
2017-01-14T13:47:04.604Z,1.76
2017-01-14T13:48:15.347Z,1.71
2017-01-14T13:49:26.095Z,1.74
2017-01-14T13:50:36.831Z,1.82
2017-01-14T13:51:47.559Z,1.7
2017-01-14T13:52:58.277Z,1.68
2017-01-14T13:54:09.027Z,1.66
2017-01-14T13:55:19.715Z,1.74
2017-01-14T13:56:30.445Z,1.76
2017-01-14T13:57:41.186Z,1.78
2017-01-14T13:58:51.928Z,1.7
2017-01-14T14:00:02.656Z,1.81
2017-01-14T14:01:13.782Z,1.74
2017-01-14T14:02:24.523Z,1.71
2017-01-14T14:03:35.237Z,1.7
2017-01-14T14:04:45.970Z,1.74
2017-01-14T14:05:56.707Z,1.78
2017-01-14T14:07:07.434Z,1.76
2017-01-14T14:08:18.129Z,1.82
2017-01-14T14:09:28.854Z,1.75
2017-01-14T14:10:39.597Z,1.88
2017-01-14T14:11:50.296Z,1.85
2017-01-14T14:13:01.044Z,1.93
2017-01-14T14:14:12.162Z,1.81
2017-01-14T14:15:22.904Z,1.93
2017-01-14T14:16:33.632Z,1.97
2017-01-14T14:17:44.365Z,2.05
2017-01-14T14:18:55.093Z,2.03
2017-01-14T14:20:05.816Z,1.97
2017-01-14T14:21:16.541Z,2.01
2017-01-14T14:22:27.259Z,1.98
2017-01-14T14:23:38.001Z,1.98
2017-01-14T14:24:48.725Z,1.98
2017-01-14T14:25:59.471Z,2.14
2017-01-14T14:27:10.215Z,2.01
2017-01-14T14:28:20.938Z,2.12
2017-01-14T14:29:31.677Z,2.14
2017-01-14T14:30:42.422Z,2.03
2017-01-14T14:31:53.167Z,2.12
2017-01-14T14:33:03.894Z,2.1
2017-01-14T14:34:14.608Z,2.04
2017-01-14T14:35:25.332Z,2.05
2017-01-14T14:36:36.061Z,2.01
2017-01-14T14:37:47.156Z,2
2017-01-14T14:38:57.866Z,2.05
2017-01-14T14:40:08.591Z,2.03
2017-01-14T14:41:19.295Z,1.97
2017-01-14T14:42:30.016Z,1.93
2017-01-14T14:43:40.729Z,2
2017-01-14T14:44:51.449Z,2
2017-01-14T14:46:02.167Z,1.97
2017-01-14T14:47:12.900Z,2
2017-01-14T14:48:23.639Z,1.89
2017-01-14T14:49:34.384Z,1.76
2017-01-14T14:50:45.109Z,1.85
2017-01-14T14:51:55.809Z,1.76
2017-01-14T14:53:06.534Z,1.76
2017-01-14T14:54:17.251Z,1.68
2017-01-14T14:55:27.972Z,1.71
2017-01-14T14:56:38.714Z,1.68
2017-01-14T14:57:49.427Z,1.64
2017-01-14T14:59:00.134Z,1.67
2017-01-14T15:00:10.880Z,1.71
2017-01-14T15:01:21.601Z,1.67
2017-01-14T15:02:32.339Z,1.66
2017-01-14T15:03:43.044Z,1.71
2017-01-14T15:04:53.766Z,1.67
2017-01-14T15:06:04.475Z,1.71
2017-01-14T15:07:15.202Z,1.68
2017-01-14T15:08:25.898Z,1.67
2017-01-14T15:09:36.597Z,1.68
2017-01-14T15:10:47.336Z,1.68
2017-01-14T15:11:58.058Z,1.6
2017-01-14T15:13:08.779Z,1.71
2017-01-14T15:14:19.509Z,1.7
2017-01-14T15:15:30.227Z,1.63
2017-01-14T15:16:40.947Z,1.68
2017-01-14T15:17:51.642Z,1.57
2017-01-14T15:19:02.356Z,1.53
2017-01-14T15:20:13.076Z,1.56
2017-01-14T15:21:23.806Z,1.48
2017-01-14T15:22:34.522Z,1.45
2017-01-14T15:23:45.271Z,1.45
2017-01-14T15:24:55.989Z,1.34
2017-01-14T15:26:06.721Z,1.32
2017-01-14T15:27:17.456Z,1.4
2017-01-14T15:28:28.186Z,1.34
2017-01-14T15:29:38.922Z,1.24
2017-01-14T15:30:49.665Z,1.27